createdAt,value
2019-02-14T00:00:13.728Z,8.83
2019-02-14T00:02:42.170Z,8.03
2019-02-14T00:05:16.225Z,9.53
2019-02-14T00:07:43.557Z,9.13
2019-02-14T00:10:12.027Z,8.30
2019-02-14T00:12:40.668Z,8.37
2019-02-14T00:15:11.425Z,8.47
2019-02-14T00:17:43.071Z,8.67
2019-02-14T00:20:10.452Z,8.70
2019-02-14T00:22:38.965Z,8.20
2019-02-14T00:25:07.463Z,9.13
2019-02-14T00:27:36.068Z,8.47
2019-02-14T00:30:05.918Z,8.60
2019-02-14T00:32:39.335Z,8.03
2019-02-14T00:35:07.839Z,8.97
2019-02-14T00:37:36.296Z,8.90
2019-02-14T00:40:07.416Z,8.47
2019-02-14T00:42:35.864Z,7.77
2019-02-14T00:45:05.321Z,7.80
2019-02-14T00:47:33.780Z,7.53
2019-02-14T00:50:02.619Z,7.67
2019-02-14T00:52:31.107Z,8.60
2019-02-14T00:54:59.538Z,8.17
2019-02-14T00:57:27.983Z,8.53
2019-02-14T00:59:56.419Z,9.47
2019-02-14T01:02:24.864Z,8.00
2019-02-14T01:04:54.561Z,8.93
2019-02-14T01:07:23.002Z,8.20
2019-02-14T01:09:51.429Z,8.63
2019-02-14T01:12:19.878Z,9.40
2019-02-14T01:14:48.309Z,9.33
2019-02-14T01:17:16.749Z,9.83
2019-02-14T01:19:45.161Z,9.10
2019-02-14T01:22:13.589Z,9.60
2019-02-14T01:24:42.038Z,9.23
2019-02-14T01:27:10.489Z,9.80
2019-02-14T01:29:43.382Z,10.17
2019-02-14T01:32:12.088Z,9.93
2019-02-14T01:34:40.552Z,9.70
2019-02-14T01:37:08.971Z,9.07
2019-02-14T01:39:37.418Z,8.53
2019-02-14T01:42:09.105Z,9.93
2019-02-14T01:44:37.559Z,8.77
2019-02-14T01:47:07.874Z,13.13
2019-02-14T01:49:36.172Z,10.07
2019-02-14T01:52:07.151Z,8.57
2019-02-14T01:54:35.594Z,10.07
2019-02-14T01:57:04.109Z,16.13
2019-02-14T01:59:32.537Z,9.30
2019-02-14T02:02:00.972Z,11.43
2019-02-14T02:04:29.402Z,11.07
2019-02-14T02:06:58.892Z,10.70
2019-02-14T02:09:27.400Z,9.53
2019-02-14T02:11:55.821Z,9.77
2019-02-14T02:14:24.257Z,8.83
2019-02-14T02:16:52.687Z,8.33
2019-02-14T02:19:21.141Z,9.07
2019-02-14T02:21:51.809Z,8.43
2019-02-14T02:24:20.253Z,9.07
2019-02-14T02:26:51.771Z,9.23
2019-02-14T02:29:20.393Z,9.13
2019-02-14T02:31:49.605Z,8.03
2019-02-14T02:34:18.046Z,9.27
2019-02-14T02:36:49.073Z,10.57
2019-02-14T02:39:17.520Z,9.50
2019-02-14T02:41:45.954Z,8.83
2019-02-14T02:44:14.390Z,8.63
2019-02-14T02:46:44.805Z,8.43
2019-02-14T02:49:13.239Z,7.40
2019-02-14T02:51:41.667Z,8.53
2019-02-14T02:54:10.120Z,8.37
2019-02-14T02:56:38.541Z,7.90
2019-02-14T02:59:06.975Z,7.87
2019-02-14T03:01:35.381Z,9.00
2019-02-14T03:04:05.008Z,7.63
2019-02-14T03:06:33.498Z,8.10
2019-02-14T03:09:01.964Z,7.63
2019-02-14T03:11:30.396Z,8.27
2019-02-14T03:13:59.521Z,8.73
2019-02-14T03:16:27.953Z,8.47
2019-02-14T03:18:56.400Z,8.13
2019-02-14T03:21:24.818Z,9.13
2019-02-14T03:23:53.276Z,9.33
2019-02-14T03:26:21.697Z,9.00
2019-02-14T03:28:50.644Z,9.13
2019-02-14T03:31:21.997Z,8.40
2019-02-14T03:33:51.605Z,8.37
2019-02-14T03:36:20.052Z,8.00
2019-02-14T03:38:52.442Z,8.77
2019-02-14T03:41:20.865Z,8.57
2019-02-14T03:43:52.085Z,8.70
2019-02-14T03:46:20.536Z,8.93
2019-02-14T03:48:48.978Z,8.67
2019-02-14T03:51:17.421Z,8.50
2019-02-14T03:53:46.552Z,8.60
2019-02-14T03:56:15.073Z,8.10
2019-02-14T03:58:43.524Z,8.13
2019-02-14T04:01:13.329Z,7.80
2019-02-14T04:03:41.781Z,8.27
2019-02-14T04:06:10.205Z,7.37
2019-02-14T04:08:38.657Z,7.70
2019-02-14T04:11:09.532Z,7.33
2019-02-14T04:13:37.977Z,8.23
2019-02-14T04:16:06.404Z,8.23
2019-02-14T04:18:34.854Z,8.57
2019-02-14T04:21:05.245Z,8.00
2019-02-14T04:23:33.695Z,7.57
2019-02-14T04:26:03.061Z,8.30
2019-02-14T04:28:31.583Z,7.77
2019-02-14T04:31:02.509Z,8.83
2019-02-14T04:33:33.819Z,9.27
2019-02-14T04:36:02.282Z,9.47
2019-02-14T04:38:30.725Z,9.57
2019-02-14T04:40:59.211Z,8.67
2019-02-14T04:43:28.373Z,8.33
2019-02-14T04:45:56.833Z,9.23
2019-02-14T04:48:25.273Z,8.20
2019-02-14T04:50:53.726Z,13.53
2019-02-14T04:53:22.241Z,9.80
2019-02-14T04:55:51.304Z,9.17
2019-02-14T04:58:19.727Z,8.83
2019-02-14T05:00:50.647Z,9.43
2019-02-14T05:03:19.086Z,10.50
2019-02-14T05:05:47.538Z,11.73
2019-02-14T05:08:15.978Z,8.73
2019-02-14T05:10:47.208Z,10.53
2019-02-14T05:13:16.200Z,10.37
2019-02-14T05:15:44.658Z,12.17
2019-02-14T05:18:13.962Z,11.90
2019-02-14T05:20:42.408Z,10.40
2019-02-14T05:23:10.844Z,10.20
2019-02-14T05:25:39.286Z,11.30
2019-02-14T05:28:13.128Z,10.20
2019-02-14T05:30:41.842Z,10.47
2019-02-14T05:33:10.267Z,9.97
2019-02-14T05:35:40.607Z,10.40
2019-02-14T05:38:09.035Z,9.83
2019-02-14T05:40:42.880Z,8.80
2019-02-14T05:43:11.713Z,8.90
2019-02-14T05:45:40.154Z,9.47
2019-02-14T05:48:08.607Z,8.87
2019-02-14T05:50:48.917Z,8.43
2019-02-14T05:53:17.363Z,9.53
2019-02-14T05:55:45.807Z,9.70
2019-02-14T05:58:15.162Z,9.80
2019-02-14T06:00:44.541Z,9.53
2019-02-14T06:03:12.992Z,9.30
2019-02-14T06:05:41.442Z,9.87
2019-02-14T06:08:13.104Z,9.63
2019-02-14T06:10:42.348Z,9.00
2019-02-14T06:13:10.780Z,9.07
2019-02-14T06:15:39.236Z,8.13
2019-02-14T06:18:07.755Z,9.53
2019-02-14T06:20:36.198Z,8.63
2019-02-14T06:23:04.655Z,9.57
2019-02-14T06:25:36.144Z,8.00
2019-02-14T06:28:04.578Z,8.23
2019-02-14T06:30:33.011Z,8.90
2019-02-14T06:33:01.469Z,9.43
2019-02-14T06:35:30.264Z,8.73
2019-02-14T06:37:58.727Z,9.70
2019-02-14T06:40:27.157Z,9.50
2019-02-14T06:42:55.628Z,8.53
2019-02-14T06:45:24.180Z,10.77
2019-02-14T06:47:52.772Z,8.77
2019-02-14T06:50:21.235Z,9.27
2019-02-14T06:52:51.301Z,9.57
2019-02-14T06:55:19.830Z,8.57
2019-02-14T06:57:48.375Z,7.60
2019-02-14T07:00:17.334Z,8.03
2019-02-14T07:02:45.784Z,8.40
2019-02-14T07:05:14.223Z,8.53
2019-02-14T07:07:42.722Z,9.20
2019-02-14T07:10:11.992Z,8.10
2019-02-14T07:12:40.522Z,9.13
2019-02-14T07:15:13.258Z,8.63
2019-02-14T07:17:41.697Z,8.27
2019-02-14T07:20:13.050Z,9.27
2019-02-14T07:22:41.492Z,8.70
2019-02-14T07:25:12.177Z,8.07
2019-02-14T07:27:40.995Z,9.10
2019-02-14T07:30:20.833Z,8.07
2019-02-14T07:32:50.282Z,8.53
2019-02-14T07:35:19.071Z,8.40
2019-02-14T07:37:47.592Z,10.63
2019-02-14T07:40:16.567Z,10.43
2019-02-14T07:42:45.010Z,11.10
2019-02-14T07:45:21.682Z,9.93
2019-02-14T07:47:50.110Z,10.23
2019-02-14T07:50:22.711Z,7.80
2019-02-14T07:52:52.689Z,9.10
2019-02-14T07:55:21.156Z,9.13
2019-02-14T07:57:54.475Z,9.23
2019-02-14T08:00:23.085Z,8.23
2019-02-14T08:02:51.549Z,8.07
2019-02-14T08:05:19.999Z,7.57
2019-02-14T08:07:48.445Z,6.93
2019-02-14T08:10:19.062Z,6.73
2019-02-14T08:12:47.611Z,7.03
2019-02-14T08:15:16.098Z,6.90
2019-02-14T08:17:44.869Z,8.43
2019-02-14T08:20:17.893Z,8.33
2019-02-14T08:22:46.315Z,7.93
2019-02-14T08:25:14.753Z,9.00
2019-02-14T08:27:43.196Z,8.67
2019-02-14T08:30:14.247Z,8.90
2019-02-14T08:32:45.495Z,8.83
2019-02-14T08:35:13.956Z,9.10
2019-02-14T08:37:45.522Z,8.27
2019-02-14T08:40:27.303Z,10.13
2019-02-14T08:42:55.727Z,9.33
2019-02-14T08:45:27.931Z,8.80
2019-02-14T08:47:59.211Z,8.53
2019-02-14T08:50:27.630Z,6.73
2019-02-14T08:52:56.052Z,8.50
2019-02-14T08:55:25.993Z,8.87
2019-02-14T08:57:55.562Z,8.97
2019-02-14T09:00:24.054Z,7.83
2019-02-14T09:02:54.609Z,14.93
2019-02-14T09:05:26.780Z,7.83
2019-02-14T09:07:58.949Z,10.03
2019-02-14T09:10:33.850Z,9.37
2019-02-14T09:13:02.278Z,8.73
2019-02-14T09:15:32.948Z,8.20
2019-02-14T09:18:01.612Z,7.13
2019-02-14T09:20:31.552Z,7.80
2019-02-14T09:22:59.992Z,7.00
2019-02-14T09:25:28.437Z,6.27
2019-02-14T09:27:56.926Z,6.60
2019-02-14T09:30:25.394Z,5.90
2019-02-14T09:32:53.831Z,6.50
2019-02-14T09:35:22.272Z,7.00
2019-02-14T09:37:50.704Z,6.47
2019-02-14T09:40:19.130Z,6.97
2019-02-14T09:42:47.607Z,6.73
2019-02-14T09:45:16.120Z,6.17
2019-02-14T09:47:47.191Z,6.17
2019-02-14T09:50:15.867Z,6.50
2019-02-14T09:52:44.531Z,6.10
2019-02-14T09:55:17.431Z,6.93
2019-02-14T09:57:48.658Z,6.40
2019-02-14T10:00:18.136Z,7.10
2019-02-14T10:02:46.564Z,6.43
2019-02-14T10:05:15.335Z,6.60
2019-02-14T10:07:47.614Z,6.70
2019-02-14T10:10:19.333Z,6.80
2019-02-14T10:12:50.237Z,7.40
2019-02-14T10:15:18.721Z,7.50
2019-02-14T10:17:47.166Z,7.13
2019-02-14T10:20:16.952Z,6.53
2019-02-14T10:22:46.644Z,5.87
2019-02-14T10:25:15.134Z,5.80
2019-02-14T10:27:43.630Z,6.60
2019-02-14T10:30:15.301Z,6.17
2019-02-14T10:32:47.409Z,6.23
2019-02-14T10:35:16.087Z,6.17
2019-02-14T10:37:45.735Z,6.07
2019-02-14T10:40:16.767Z,6.60
2019-02-14T10:42:45.207Z,6.50
2019-02-14T10:45:18.448Z,6.03
2019-02-14T10:47:48.972Z,6.07
2019-02-14T10:50:21.476Z,6.33
2019-02-14T10:52:49.899Z,7.27
2019-02-14T10:55:18.358Z,6.40
2019-02-14T10:57:46.785Z,6.40
2019-02-14T11:00:18.324Z,6.67
2019-02-14T11:02:46.993Z,6.97
2019-02-14T11:05:16.498Z,6.70
2019-02-14T11:07:48.448Z,6.23
2019-02-14T11:10:17.613Z,6.53
2019-02-14T11:12:50.074Z,6.13
2019-02-14T11:15:25.677Z,6.53
2019-02-14T11:17:54.110Z,6.17
2019-02-14T11:20:22.529Z,6.20
2019-02-14T11:22:51.064Z,6.17
2019-02-14T11:25:29.843Z,6.27
2019-02-14T11:27:58.312Z,5.80
2019-02-14T11:30:29.331Z,6.27
2019-02-14T11:32:57.755Z,5.90
2019-02-14T11:35:26.198Z,6.40
2019-02-14T11:37:56.377Z,6.10
2019-02-14T11:40:24.796Z,6.37
2019-02-14T11:42:53.737Z,6.40
2019-02-14T11:45:24.307Z,6.60
2019-02-14T11:47:52.756Z,5.83
2019-02-14T11:50:21.183Z,6.27
2019-02-14T11:52:49.606Z,6.53
2019-02-14T11:55:18.929Z,6.00
2019-02-14T11:57:47.365Z,6.23
2019-02-14T12:00:26.968Z,6.77
2019-02-14T12:02:56.715Z,6.23
2019-02-14T12:05:25.202Z,6.50
2019-02-14T12:07:55.779Z,6.07
2019-02-14T12:10:24.195Z,5.80
2019-02-14T12:12:52.630Z,6.33
2019-02-14T12:15:23.385Z,6.47
2019-02-14T12:17:54.342Z,6.13
2019-02-14T12:20:22.787Z,5.53
2019-02-14T12:22:57.861Z,5.27
2019-02-14T12:25:31.733Z,5.90
2019-02-14T12:28:00.143Z,5.90
2019-02-14T12:30:38.206Z,5.73
2019-02-14T12:33:06.623Z,6.20
2019-02-14T12:35:35.058Z,6.40
2019-02-14T12:38:04.084Z,5.57
2019-02-14T12:40:32.521Z,6.13
2019-02-14T12:43:01.402Z,5.47
2019-02-14T12:45:29.910Z,5.47
2019-02-14T12:47:58.807Z,5.40
2019-02-14T12:50:27.849Z,5.70
2019-02-14T12:52:57.647Z,5.37
2019-02-14T12:55:26.082Z,5.60
2019-02-14T12:57:54.515Z,5.33
2019-02-14T13:00:24.565Z,5.37
2019-02-14T13:02:53.025Z,6.00
2019-02-14T13:05:21.865Z,5.87
2019-02-14T13:07:50.336Z,6.53
2019-02-14T13:10:19.219Z,5.17
2019-02-14T13:12:47.678Z,5.60
2019-02-14T13:15:28.453Z,5.53
2019-02-14T13:17:57.210Z,5.07
2019-02-14T13:20:25.792Z,5.70
2019-02-14T13:22:54.221Z,5.17
2019-02-14T13:25:22.696Z,4.70
2019-02-14T13:27:51.263Z,5.00
2019-02-14T13:30:22.625Z,4.73
2019-02-14T13:32:51.597Z,4.80
2019-02-14T13:35:20.435Z,5.40
2019-02-14T13:37:49.099Z,4.30
2019-02-14T13:40:20.487Z,5.23
2019-02-14T13:42:48.936Z,5.23
2019-02-14T13:45:20.444Z,5.30
2019-02-14T13:47:48.883Z,8.40
2019-02-14T13:50:17.358Z,4.60
2019-02-14T13:52:45.940Z,4.73
2019-02-14T13:55:14.374Z,4.80
2019-02-14T13:57:42.904Z,4.43
2019-02-14T14:00:23.361Z,4.57
2019-02-14T14:02:52.768Z,5.37
2019-02-14T14:05:21.179Z,4.47
2019-02-14T14:07:49.670Z,5.30
2019-02-14T14:10:18.108Z,4.37
2019-02-14T14:12:46.561Z,4.63
2019-02-14T14:15:14.981Z,4.33
2019-02-14T14:17:43.399Z,3.90
2019-02-14T14:20:12.113Z,4.13
2019-02-14T14:22:40.536Z,4.23
2019-02-14T14:25:10.935Z,4.30
2019-02-14T14:27:39.623Z,3.77
2019-02-14T14:30:12.206Z,4.10
2019-02-14T14:32:40.643Z,4.30
2019-02-14T14:35:10.976Z,4.63
2019-02-14T14:37:40.055Z,4.07
2019-02-14T14:40:11.055Z,4.17
2019-02-14T14:42:53.837Z,3.50
2019-02-14T14:45:29.876Z,4.00
2019-02-14T14:47:58.303Z,5.27
2019-02-14T14:50:27.174Z,3.63
2019-02-14T14:52:55.606Z,5.00
2019-02-14T14:55:24.680Z,5.17
2019-02-14T14:57:53.121Z,3.77
2019-02-14T15:00:21.566Z,4.37
2019-02-14T15:02:50.520Z,4.37
2019-02-14T15:05:18.948Z,3.73
2019-02-14T15:07:47.852Z,4.37
2019-02-14T15:10:16.293Z,4.30
2019-02-14T15:12:44.987Z,3.53
2019-02-14T15:15:13.967Z,4.03
2019-02-14T15:17:42.407Z,3.70
2019-02-14T15:20:11.111Z,3.60
2019-02-14T15:22:39.631Z,3.33
2019-02-14T15:25:08.059Z,3.67
2019-02-14T15:27:36.493Z,3.10
2019-02-14T15:30:05.888Z,3.47
2019-02-14T15:32:34.320Z,3.77
2019-02-14T15:35:02.996Z,3.60
2019-02-14T15:37:31.482Z,4.30
2019-02-14T15:40:08.805Z,3.40
2019-02-14T15:42:30.056Z,3.17
2019-02-14T15:44:58.466Z,4.23
2019-02-14T15:47:27.284Z,3.40
2019-02-14T15:49:57.461Z,2.80
2019-02-14T15:52:27.449Z,3.10
2019-02-14T15:54:57.739Z,3.50
2019-02-14T15:57:26.274Z,3.30
2019-02-14T15:59:55.619Z,3.47
2019-02-14T16:02:24.430Z,3.20
2019-02-14T16:04:54.797Z,3.63
2019-02-14T16:07:24.353Z,3.60
2019-02-14T16:09:52.781Z,3.60
2019-02-14T16:12:21.977Z,3.53
2019-02-14T16:14:52.090Z,3.30
2019-02-14T16:17:21.082Z,4.23
2019-02-14T16:19:49.517Z,4.23
2019-02-14T16:22:19.533Z,3.93
2019-02-14T16:24:48.058Z,3.67
2019-02-14T16:27:16.496Z,9.63
2019-02-14T16:29:47.224Z,6.70
2019-02-14T16:32:15.960Z,3.47
2019-02-14T16:34:44.383Z,3.10
2019-02-14T16:37:13.614Z,3.73
2019-02-14T16:39:51.302Z,2.73
2019-02-14T16:42:12.140Z,3.00
2019-02-14T16:44:40.560Z,3.00
2019-02-14T16:47:08.999Z,2.97
2019-02-14T16:49:37.419Z,3.17
2019-02-14T16:52:05.835Z,2.80
2019-02-14T16:54:36.323Z,3.37
2019-02-14T16:57:04.411Z,2.80
2019-02-14T16:59:32.857Z,3.27
2019-02-14T17:02:01.609Z,3.47
2019-02-14T17:04:30.369Z,3.10
2019-02-14T17:06:58.838Z,3.17
2019-02-14T17:09:27.692Z,3.77
2019-02-14T17:11:56.112Z,3.03
2019-02-14T17:17:56.333Z,3.03
2019-02-14T17:20:24.772Z,3.27
2019-02-14T17:22:53.779Z,3.80
2019-02-14T17:25:22.212Z,3.37
2019-02-14T17:27:51.031Z,3.37
2019-02-14T17:30:19.460Z,3.40
2019-02-14T17:32:47.892Z,3.40
2019-02-14T17:35:16.393Z,3.30
2019-02-14T17:37:44.820Z,2.90
2019-02-14T17:40:13.432Z,3.33
2019-02-14T17:42:41.921Z,3.60
2019-02-14T17:45:10.523Z,3.67
2019-02-14T17:47:40.267Z,3.33
2019-02-14T17:50:09.160Z,4.00
2019-02-14T17:52:37.575Z,3.47
2019-02-14T17:55:08.500Z,3.20
2019-02-14T17:57:40.872Z,4.10
2019-02-14T18:00:11.705Z,3.90
2019-02-14T18:02:41.112Z,3.47
2019-02-14T18:05:10.650Z,3.17
2019-02-14T18:07:39.834Z,3.03
2019-02-14T18:10:12.900Z,3.10
2019-02-14T18:12:41.335Z,3.30
2019-02-14T18:15:12.343Z,4.43
2019-02-14T18:17:44.329Z,3.90
2019-02-14T18:20:15.322Z,3.67
2019-02-14T18:22:43.756Z,3.90
2019-02-14T18:25:12.740Z,3.20
2019-02-14T18:27:41.184Z,4.00
2019-02-14T18:30:12.846Z,3.97
2019-02-14T18:32:41.267Z,5.23
2019-02-14T18:35:12.662Z,4.60
2019-02-14T18:37:41.409Z,4.90
2019-02-14T18:40:10.680Z,4.60
2019-02-14T18:42:41.972Z,5.53
2019-02-14T18:45:12.903Z,4.63
2019-02-14T18:47:43.371Z,4.87
2019-02-14T18:50:13.140Z,4.80
2019-02-14T18:52:41.635Z,4.70
2019-02-14T18:55:11.107Z,4.37
2019-02-14T18:57:39.777Z,4.63
2019-02-14T19:00:16.808Z,5.00
2019-02-14T19:02:45.482Z,5.20
2019-02-14T19:05:14.569Z,4.93
2019-02-14T19:07:43.021Z,5.33
2019-02-14T19:10:16.574Z,5.10
2019-02-14T19:12:45.051Z,5.53
2019-02-14T19:15:14.069Z,5.37
2019-02-14T19:17:42.564Z,5.10
2019-02-14T19:20:11.896Z,5.83
2019-02-14T19:22:41.477Z,6.07
2019-02-14T19:25:10.284Z,5.97
2019-02-14T19:27:45.238Z,5.30
2019-02-14T19:30:14.093Z,5.27
2019-02-14T19:32:42.616Z,6.33
2019-02-14T19:35:11.045Z,5.60
2019-02-14T19:37:40.685Z,5.90
2019-02-14T19:40:09.405Z,6.07
2019-02-14T19:42:37.826Z,6.70
2019-02-14T19:45:09.617Z,6.43
2019-02-14T19:47:38.044Z,6.13
2019-02-14T19:50:12.397Z,5.70
2019-02-14T19:52:40.879Z,6.20
2019-02-14T19:55:09.855Z,6.20
2019-02-14T19:57:38.273Z,6.57
2019-02-14T20:00:09.614Z,6.17
2019-02-14T20:02:38.110Z,6.30
2019-02-14T20:05:08.668Z,5.70
2019-02-14T20:07:37.083Z,5.73
2019-02-14T20:10:08.446Z,4.60
2019-02-14T20:12:36.862Z,5.63
2019-02-14T20:15:08.699Z,4.93
2019-02-14T20:17:37.123Z,5.03
2019-02-14T20:20:07.812Z,5.50
2019-02-14T20:22:38.791Z,5.83
2019-02-14T20:25:13.109Z,6.23
2019-02-14T20:27:41.526Z,5.37
2019-02-14T20:30:10.074Z,5.47
2019-02-14T20:32:38.559Z,6.37
2019-02-14T20:35:08.282Z,5.67
2019-02-14T20:37:38.208Z,6.47
2019-02-14T20:40:14.528Z,6.00
2019-02-14T20:42:43.060Z,5.50
2019-02-14T20:45:25.745Z,5.80
2019-02-14T20:47:57.027Z,5.47
2019-02-14T20:50:24.377Z,7.33
2019-02-14T20:52:52.820Z,5.90
2019-02-14T20:55:25.710Z,6.53
2019-02-14T20:57:54.221Z,5.80
2019-02-14T21:00:30.413Z,7.00
2019-02-14T21:02:58.852Z,6.13
2019-02-14T21:05:27.304Z,6.77
2019-02-14T21:07:55.743Z,6.03
2019-02-14T21:10:26.227Z,6.40
2019-02-14T21:12:58.675Z,6.33
2019-02-14T21:15:27.103Z,6.27
2019-02-14T21:17:55.532Z,6.03
2019-02-14T21:20:28.492Z,6.63
2019-02-14T21:22:56.933Z,6.33
2019-02-14T21:25:25.665Z,6.40
2019-02-14T21:27:54.101Z,6.80
2019-02-14T21:30:22.533Z,7.20
2019-02-14T21:32:50.989Z,6.90
2019-02-14T21:35:19.400Z,7.03
2019-02-14T21:37:47.835Z,6.50
2019-02-14T21:40:17.700Z,6.33
2019-02-14T21:42:46.111Z,6.80
2019-02-14T21:45:15.586Z,6.27
2019-02-14T21:47:46.437Z,6.80
2019-02-14T21:50:15.780Z,6.67
2019-02-14T21:52:44.323Z,6.97
2019-02-14T21:55:16.454Z,7.33
2019-02-14T21:57:45.095Z,7.10
2019-02-14T22:00:22.072Z,6.63
2019-02-14T22:02:50.617Z,6.80
2019-02-14T22:05:24.361Z,6.37
2019-02-14T22:07:49.276Z,6.97
2019-02-14T22:10:17.813Z,7.27
2019-02-14T22:12:46.236Z,7.43
2019-02-14T22:15:17.964Z,8.47
2019-02-14T22:17:46.388Z,7.23
2019-02-14T22:20:14.819Z,7.07
2019-02-14T22:22:43.224Z,7.60
2019-02-14T22:25:11.727Z,6.73
2019-02-14T22:27:41.106Z,6.53
2019-02-14T22:30:13.578Z,7.70
2019-02-14T22:32:42.084Z,6.87
2019-02-14T22:35:13.246Z,6.57
2019-02-14T22:37:41.768Z,6.27
2019-02-14T22:40:13.830Z,6.00
2019-02-14T22:42:47.351Z,6.63
2019-02-14T22:45:14.126Z,7.23
2019-02-14T22:47:46.785Z,7.00
2019-02-14T22:50:18.473Z,6.47
2019-02-14T22:52:46.915Z,7.40
2019-02-14T22:55:15.338Z,7.53
2019-02-14T22:57:43.866Z,7.43
2019-02-14T23:00:32.466Z,7.00
2019-02-14T23:03:01.075Z,7.20
2019-02-14T23:05:29.624Z,6.97
2019-02-14T23:07:58.061Z,6.47
2019-02-14T23:10:26.551Z,7.43
2019-02-14T23:12:56.096Z,6.97
2019-02-14T23:15:24.692Z,6.97
2019-02-14T23:17:53.146Z,6.70
2019-02-14T23:20:22.328Z,7.00
2019-02-14T23:22:50.783Z,7.50
2019-02-14T23:25:22.072Z,6.90
2019-02-14T23:27:54.269Z,7.07
2019-02-14T23:30:22.739Z,7.30
2019-02-14T23:32:51.180Z,6.97
2019-02-14T23:35:19.601Z,7.53
2019-02-14T23:37:48.092Z,7.33
2019-02-14T23:40:16.520Z,7.27
2019-02-14T23:42:47.205Z,7.60
2019-02-14T23:45:16.745Z,7.43
2019-02-14T23:47:45.218Z,7.63
2019-02-14T23:50:13.750Z,7.80
2019-02-14T23:52:42.184Z,7.63
2019-02-14T23:55:10.623Z,7.33
2019-02-14T23:57:41.609Z,7.27
